Terminal Aerodrome Forecast
Issued by NWS Spokane, WA

Home | Current Version | Previous Version | Text Only | Print | Product List | Glossary On
Versions: 1 2 3 4 5 6 7 8 9 10 11 12 13 14 15 16 17 18 19 20 21 22 23 24 25 26 27 28 29 30 31 32 33 34 35 36 37 38 39 40 41 42 43 44 45 46 47 48 49 50
000
FTUS46 KOTX 232339
TAFEAT
TAF
KEAT 232339Z 2400/2424 00000KT 1 1/2SM -SN BR BKN003 OVC012
      TEMPO 2400/2402 1/2SM SN OVC003
     FM240200 VRB02KT 1/2SM SN OVC003
     FM240600 09002KT 6SM BR VCSH SCT003 OVC006
     FM241700 VRB02KT 6SM -RA BR SCT008 OVC020=

USA.gov is the U.S. government's official web portal to all federal, state and local government web resources and services.